createdAt,value
2019-04-14T00:00:46.861Z,3.23
2019-04-14T00:01:47.392Z,3.19
2019-04-14T00:02:46.871Z,3.13
2019-04-14T00:03:47.528Z,3.24
2019-04-14T00:04:46.594Z,3.26
2019-04-14T00:05:47.278Z,3.17
2019-04-14T00:06:46.462Z,3.27
2019-04-14T00:07:47.147Z,3.19
2019-04-14T00:08:46.419Z,3.17
2019-04-14T00:09:47.493Z,3.24
2019-04-14T00:10:46.490Z,3.24
2019-04-14T00:11:46.440Z,3.21
2019-04-14T00:12:47.038Z,3.26
2019-04-14T00:13:46.369Z,3.13
2019-04-14T00:14:46.950Z,3.19
2019-04-14T00:15:49.090Z,3.13
2019-04-14T00:16:46.745Z,3.19
2019-04-14T00:17:46.369Z,3.14
2019-04-14T00:18:46.966Z,3.16
2019-04-14T00:19:46.308Z,3.14
2019-04-14T00:20:46.924Z,3.17
2019-04-14T00:21:47.521Z,3.13
2019-04-14T00:22:46.833Z,3.16
2019-04-14T00:23:46.330Z,3.19
2019-04-14T00:24:46.735Z,3.20
2019-04-14T00:25:46.248Z,3.05
2019-04-14T00:26:46.699Z,3.13
2019-04-14T00:27:47.465Z,3.02
2019-04-14T00:28:46.960Z,3.03
2019-04-14T00:29:46.234Z,3.08
2019-04-14T00:30:46.992Z,3.11
2019-04-14T00:31:46.202Z,3.08
2019-04-14T00:32:46.562Z,3.05
2019-04-14T00:33:47.290Z,3.05
2019-04-14T00:34:46.457Z,3.13
2019-04-14T00:35:47.168Z,3.02
2019-04-14T00:36:46.136Z,3.11
2019-04-14T00:37:46.628Z,3.03
2019-04-14T00:38:46.113Z,3.01
2019-04-14T00:39:46.573Z,3.19
2019-04-14T00:40:46.088Z,3.13
2019-04-14T00:41:51.837Z,3.09
2019-04-14T00:42:47.347Z,3.01
2019-04-14T00:43:46.104Z,2.88
2019-04-14T00:44:47.278Z,2.98
2019-04-14T00:45:52.721Z,3.01
2019-04-14T00:46:47.469Z,3.03
2019-04-14T00:47:55.689Z,3.08
2019-04-14T00:48:47.397Z,3.03
2019-04-14T00:49:46.310Z,2.90
2019-04-14T00:50:45.982Z,3.08
2019-04-14T00:51:46.179Z,2.99
2019-04-14T00:52:46.008Z,3.01
2019-04-14T00:53:46.699Z,3.06
2019-04-14T00:54:45.944Z,3.09
2019-04-14T00:55:46.613Z,3.06
2019-04-14T00:56:45.925Z,3.01
2019-04-14T00:57:46.299Z,2.87
2019-04-14T00:58:45.949Z,2.91
2019-04-14T00:59:46.382Z,2.93
2019-04-14T01:00:45.890Z,2.96
2019-04-14T01:01:46.016Z,2.96
2019-04-14T01:02:46.978Z,2.84
2019-04-14T01:03:45.952Z,2.84
2019-04-14T01:04:46.928Z,2.96
2019-04-14T01:05:45.999Z,2.93
2019-04-14T01:06:46.887Z,2.91
2019-04-14T01:07:45.802Z,2.85
2019-04-14T01:08:46.807Z,2.88
2019-04-14T01:09:46.364Z,2.93
2019-04-14T01:10:45.815Z,2.88
2019-04-14T01:11:46.509Z,2.96
2019-04-14T01:12:45.749Z,2.93
2019-04-14T01:13:46.256Z,2.87
2019-04-14T01:14:45.730Z,2.95
2019-04-14T01:15:55.739Z,2.88
2019-04-14T01:16:47.347Z,2.91
2019-04-14T01:17:46.080Z,2.85
2019-04-14T01:18:45.691Z,2.85
2019-04-14T01:19:46.005Z,2.88
2019-04-14T01:20:45.667Z,2.87
2019-04-14T01:21:45.807Z,2.95
2019-04-14T01:22:46.701Z,2.90
2019-04-14T01:23:45.637Z,2.84
2019-04-14T01:24:46.759Z,2.78
2019-04-14T01:25:45.615Z,2.85
2019-04-14T01:26:46.390Z,2.83
2019-04-14T01:27:45.594Z,2.81
2019-04-14T01:28:46.157Z,2.91
2019-04-14T01:29:45.612Z,2.77
2019-04-14T01:30:45.870Z,2.84
2019-04-14T01:31:45.553Z,2.91
2019-04-14T01:32:45.812Z,2.98
2019-04-14T01:33:45.541Z,2.96
2019-04-14T01:34:45.599Z,2.93
2019-04-14T01:35:46.617Z,2.95
2019-04-14T01:36:45.504Z,2.73
2019-04-14T01:37:46.444Z,2.85
2019-04-14T01:38:45.476Z,2.73
2019-04-14T01:39:46.030Z,2.73
2019-04-14T01:40:46.579Z,2.73
2019-04-14T01:41:45.667Z,2.72
2019-04-14T01:42:46.344Z,2.73
2019-04-14T01:43:45.425Z,2.80
2019-04-14T01:44:45.965Z,2.77
2019-04-14T01:45:58.142Z,2.72
2019-04-14T01:46:47.552Z,2.72
2019-04-14T01:47:46.425Z,2.65
2019-04-14T01:48:45.468Z,2.73
2019-04-14T01:49:46.545Z,2.70
2019-04-14T01:50:45.356Z,2.70
2019-04-14T01:51:46.351Z,2.59
2019-04-14T01:52:45.787Z,2.60
2019-04-14T01:53:45.337Z,2.58
2019-04-14T01:54:45.408Z,2.60
2019-04-14T01:55:46.226Z,2.63
2019-04-14T01:56:45.293Z,2.59
2019-04-14T01:57:45.958Z,2.58
2019-04-14T01:58:45.294Z,2.63
2019-04-14T01:59:45.996Z,2.51
2019-04-14T02:00:45.254Z,2.51
2019-04-14T02:01:45.677Z,2.66
2019-04-14T02:02:46.463Z,2.63
2019-04-14T02:03:45.559Z,2.54
2019-04-14T02:04:46.189Z,2.67
2019-04-14T02:05:45.358Z,2.72
2019-04-14T02:06:46.248Z,2.69
2019-04-14T02:07:45.226Z,2.60
2019-04-14T02:08:45.876Z,2.62
2019-04-14T02:09:45.175Z,2.70
2019-04-14T02:10:45.616Z,2.76
2019-04-14T02:11:45.132Z,2.63
2019-04-14T02:12:45.273Z,2.59
2019-04-14T02:13:46.346Z,2.58
2019-04-14T02:14:45.238Z,2.59
2019-04-14T02:15:46.205Z,2.47
2019-04-14T02:16:50.409Z,2.44
2019-04-14T02:17:46.179Z,2.55
2019-04-14T02:18:45.055Z,2.58
2019-04-14T02:19:46.008Z,2.58
2019-04-14T02:20:45.039Z,2.63
2019-04-14T02:21:45.664Z,2.58
2019-04-14T02:22:46.224Z,2.60
2019-04-14T02:23:45.338Z,2.59
2019-04-14T02:24:46.026Z,2.58
2019-04-14T02:25:45.118Z,2.51
2019-04-14T02:26:45.948Z,2.48
2019-04-14T02:27:45.122Z,2.51
2019-04-14T02:28:46.109Z,2.47
2019-04-14T02:29:45.146Z,2.62
2019-04-14T02:30:53.621Z,2.55
2019-04-14T02:32:17.619Z,2.58
2019-04-14T02:33:17.286Z,2.59
2019-04-14T02:34:21.932Z,2.54
2019-04-14T02:35:16.713Z,2.60
2019-04-14T02:37:19.167Z,2.63
2019-04-14T02:39:15.610Z,2.63
2019-04-14T02:43:12.902Z,2.55
2019-04-14T02:44:16.070Z,2.55
2019-04-14T02:45:19.810Z,2.58
2019-04-14T02:46:12.196Z,2.47
2019-04-14T02:48:41.976Z,2.62
2019-04-14T02:49:16.788Z,2.59
2019-04-14T02:51:15.881Z,2.58
2019-04-14T02:52:12.035Z,2.54
2019-04-14T02:53:15.638Z,2.58
2019-04-14T02:54:12.301Z,2.60
2019-04-14T02:55:10.697Z,2.62
2019-04-14T02:56:27.908Z,2.69
2019-04-14T02:57:17.261Z,2.72
2019-04-14T02:58:09.984Z,2.60
2019-04-14T03:00:19.525Z,2.58
2019-04-14T03:01:21.614Z,2.60
2019-04-14T03:02:23.137Z,2.60
2019-04-14T03:03:16.137Z,2.58
2019-04-14T03:04:12.762Z,2.52
2019-04-14T03:05:09.756Z,2.54
2019-04-14T03:07:26.425Z,2.52
2019-04-14T03:08:22.267Z,2.55
2019-04-14T03:10:12.664Z,2.55
2019-04-14T03:11:12.003Z,2.55
2019-04-14T03:12:09.372Z,2.45
2019-04-14T03:13:13.460Z,2.55
2019-04-14T03:15:13.076Z,2.45
2019-04-14T03:16:15.541Z,2.48
2019-04-14T03:18:23.986Z,2.41
2019-04-14T03:19:06.454Z,2.52
2019-04-14T03:21:13.420Z,2.41
2019-04-14T03:22:26.116Z,2.41
2019-04-14T03:23:18.938Z,2.45
2019-04-14T03:25:00.620Z,2.38
2019-04-14T03:26:06.352Z,2.45
2019-04-14T03:27:13.501Z,2.49
2019-04-14T03:28:06.851Z,2.40
2019-04-14T03:29:11.169Z,2.42
2019-04-14T03:32:23.271Z,2.59
2019-04-14T03:34:29.910Z,2.58
2019-04-14T03:35:37.779Z,2.49
2019-04-14T03:36:49.792Z,2.54
2019-04-14T03:39:17.410Z,2.54
2019-04-14T03:40:10.037Z,2.52
2019-04-14T03:42:22.902Z,2.58
2019-04-14T03:43:25.237Z,2.55
2019-04-14T03:44:10.026Z,2.45
2019-04-14T03:45:16.055Z,2.47
2019-04-14T03:47:13.926Z,2.60
2019-04-14T03:51:34.051Z,2.49
2019-04-14T03:52:31.973Z,2.47
2019-04-14T03:53:18.765Z,2.54
2019-04-14T03:54:03.322Z,2.47
2019-04-14T03:55:01.525Z,2.44
2019-04-14T03:55:53.798Z,2.40
2019-04-14T03:56:45.025Z,2.42
2019-04-14T03:57:44.030Z,2.59
2019-04-14T03:58:44.419Z,2.55
2019-04-14T03:59:44.003Z,2.63
2019-04-14T04:00:44.326Z,2.54
2019-04-14T04:01:44.152Z,2.44
2019-04-14T04:02:44.674Z,2.49
2019-04-14T04:03:43.995Z,2.45
2019-04-14T04:04:44.520Z,2.59
2019-04-14T04:05:43.923Z,2.52
2019-04-14T04:06:44.272Z,2.55
2019-04-14T04:07:43.917Z,2.48
2019-04-14T04:08:44.145Z,2.60
2019-04-14T04:09:43.942Z,2.47
2019-04-14T04:10:44.301Z,2.49
2019-04-14T04:11:43.868Z,2.51
2019-04-14T04:12:44.376Z,2.52
2019-04-14T04:13:43.849Z,2.47
2019-04-14T04:14:44.220Z,2.51
2019-04-14T04:15:43.871Z,2.60
2019-04-14T04:16:44.029Z,2.52
2019-04-14T04:17:45.073Z,2.49
2019-04-14T04:18:51.266Z,2.49
2019-04-14T04:19:44.831Z,2.48
2019-04-14T04:20:43.770Z,2.44
2019-04-14T04:21:44.439Z,2.45
2019-04-14T04:22:43.750Z,2.44
2019-04-14T04:23:44.690Z,2.40
2019-04-14T04:24:43.735Z,2.47
2019-04-14T04:25:44.421Z,2.54
2019-04-14T04:26:44.994Z,2.44
2019-04-14T04:27:44.049Z,2.59
2019-04-14T04:28:43.690Z,2.65
2019-04-14T04:29:44.078Z,2.63
2019-04-14T04:30:44.674Z,2.59
2019-04-14T04:31:43.969Z,2.60
2019-04-14T04:32:44.757Z,2.60
2019-04-14T04:33:43.734Z,2.55
2019-04-14T04:34:44.567Z,2.58
2019-04-14T04:35:43.686Z,2.55
2019-04-14T04:36:44.224Z,2.60
2019-04-14T04:37:43.600Z,2.59
2019-04-14T04:38:51.006Z,2.54
2019-04-14T04:39:43.570Z,2.60
2019-04-14T04:40:43.989Z,2.59
2019-04-14T04:41:43.547Z,2.60
2019-04-14T04:42:43.708Z,2.69
2019-04-14T04:43:43.528Z,2.62
2019-04-14T04:44:44.173Z,2.69
2019-04-14T04:45:43.506Z,2.60
2019-04-14T04:46:43.819Z,2.59
2019-04-14T04:47:44.725Z,2.55
2019-04-14T04:48:43.741Z,2.65
2019-04-14T04:49:44.619Z,2.58
2019-04-14T04:50:43.477Z,2.52
2019-04-14T04:51:44.335Z,2.65
2019-04-14T04:52:43.432Z,2.66
2019-04-14T04:53:44.043Z,2.69
2019-04-14T04:54:43.413Z,2.72
2019-04-14T04:55:43.898Z,2.67
2019-04-14T04:56:43.406Z,2.70
2019-04-14T04:57:43.806Z,2.67
2019-04-14T04:58:43.530Z,2.62
2019-04-14T04:59:43.357Z,2.70
2019-04-14T05:00:44.173Z,2.70
2019-04-14T05:01:43.338Z,2.58
2019-04-14T05:02:43.877Z,2.60
2019-04-14T05:03:43.317Z,2.60
2019-04-14T05:04:43.836Z,2.63
2019-04-14T05:05:43.297Z,2.58
2019-04-14T05:06:43.728Z,2.55
2019-04-14T05:07:43.273Z,2.54
2019-04-14T05:08:43.529Z,2.55
2019-04-14T05:09:43.260Z,2.58
2019-04-14T05:10:43.599Z,2.63
2019-04-14T05:11:43.235Z,2.60
2019-04-14T05:12:43.587Z,2.58
2019-04-14T05:13:43.214Z,2.59
2019-04-14T05:14:43.503Z,2.59
2019-04-14T05:15:44.382Z,2.70
2019-04-14T05:16:43.998Z,2.72
2019-04-14T05:17:43.174Z,2.76
2019-04-14T05:18:44.130Z,2.70
2019-04-14T05:19:43.577Z,2.77
2019-04-14T05:20:44.147Z,2.77
2019-04-14T05:21:43.153Z,2.76
2019-04-14T05:22:43.968Z,2.72
2019-04-14T05:23:43.191Z,2.80
2019-04-14T05:24:44.047Z,2.78
2019-04-14T05:25:43.085Z,2.73
2019-04-14T05:26:43.793Z,2.78
2019-04-14T05:27:43.122Z,2.88
2019-04-14T05:28:43.813Z,2.93
2019-04-14T05:29:43.104Z,2.88
2019-04-14T05:30:43.616Z,2.98
2019-04-14T05:31:43.023Z,3.03
2019-04-14T05:32:43.472Z,2.91
2019-04-14T05:33:43.004Z,2.87
2019-04-14T05:34:43.341Z,2.88
2019-04-14T05:35:42.981Z,2.88
2019-04-14T05:36:43.280Z,3.01
2019-04-14T05:37:42.961Z,3.02
2019-04-14T05:38:43.013Z,2.96
2019-04-14T05:39:43.935Z,2.91
2019-04-14T05:40:42.978Z,2.88
2019-04-14T05:41:55.910Z,2.93
2019-04-14T05:42:45.044Z,2.87
2019-04-14T05:43:49.736Z,2.88
2019-04-14T05:44:44.773Z,2.99
2019-04-14T05:45:43.696Z,3.06
2019-04-14T05:46:42.865Z,2.98
2019-04-14T05:47:43.656Z,2.95
2019-04-14T05:48:42.847Z,2.98
2019-04-14T05:49:46.872Z,3.05
2019-04-14T05:50:44.399Z,3.06
2019-04-14T05:51:43.731Z,3.03
2019-04-14T05:52:42.805Z,3.13
2019-04-14T05:53:43.788Z,3.17
2019-04-14T05:54:42.785Z,3.13
2019-04-14T05:55:43.757Z,3.13
2019-04-14T05:56:42.813Z,3.09
2019-04-14T05:57:43.787Z,3.11
2019-04-14T05:58:42.740Z,3.23
2019-04-14T05:59:43.965Z,3.19
2019-04-14T06:00:43.737Z,3.06
2019-04-14T06:01:42.711Z,3.17
2019-04-14T06:02:42.755Z,3.24
2019-04-14T06:03:43.252Z,3.29
2019-04-14T06:04:43.883Z,3.29
2019-04-14T06:05:42.886Z,3.30
2019-04-14T06:06:42.779Z,3.27
2019-04-14T06:07:42.650Z,3.32
2019-04-14T06:08:42.685Z,3.24
2019-04-14T06:09:42.625Z,3.26
2019-04-14T06:10:42.620Z,3.32
2019-04-14T06:11:42.605Z,3.40
2019-04-14T06:12:42.596Z,3.42
2019-04-14T06:13:42.583Z,3.40
2019-04-14T06:14:42.621Z,3.43
2019-04-14T06:15:42.563Z,3.32
2019-04-14T06:16:42.555Z,3.40
2019-04-14T06:17:42.548Z,3.39
2019-04-14T06:18:42.531Z,3.43
2019-04-14T06:19:42.519Z,3.40
2019-04-14T06:20:42.557Z,3.39
2019-04-14T06:21:42.501Z,3.56
2019-04-14T06:22:42.487Z,3.60
2019-04-14T06:23:42.478Z,3.54
2019-04-14T06:24:42.467Z,3.58
2019-04-14T06:25:42.456Z,3.66
2019-04-14T06:26:42.493Z,3.67
2019-04-14T06:27:42.435Z,3.69
2019-04-14T06:28:42.426Z,3.75
2019-04-14T06:29:42.416Z,3.71
2019-04-14T06:30:42.406Z,3.72
2019-04-14T06:31:42.394Z,3.75
2019-04-14T06:32:42.437Z,3.78
2019-04-14T06:33:42.373Z,3.69
2019-04-14T06:34:42.360Z,3.66
2019-04-14T06:35:42.350Z,3.84
2019-04-14T06:36:42.341Z,3.74
2019-04-14T06:37:42.332Z,3.82
2019-04-14T06:38:42.367Z,3.76
2019-04-14T06:39:42.309Z,3.69
2019-04-14T06:40:42.296Z,3.66
2019-04-14T06:41:42.286Z,3.84
2019-04-14T06:42:42.277Z,3.81
2019-04-14T06:43:48.638Z,3.69
2019-04-14T06:44:43.302Z,3.69
2019-04-14T06:45:42.248Z,3.76
2019-04-14T06:46:42.236Z,3.84
2019-04-14T06:47:42.222Z,3.90
2019-04-14T06:48:42.214Z,3.96
2019-04-14T06:49:48.920Z,4.03
2019-04-14T06:50:43.247Z,4.04
2019-04-14T06:51:42.182Z,4.07
2019-04-14T06:52:42.169Z,3.93
2019-04-14T06:53:42.159Z,4.03
2019-04-14T06:54:42.146Z,4.10
2019-04-14T06:55:42.136Z,4.07
2019-04-14T06:56:42.214Z,4.11
2019-04-14T06:57:42.117Z,4.08
2019-04-14T06:58:42.106Z,4.20
2019-04-14T06:59:42.096Z,4.35
2019-04-14T07:00:42.083Z,4.42
2019-04-14T07:01:42.076Z,4.40
2019-04-14T07:02:42.111Z,4.35
2019-04-14T07:03:42.053Z,4.21
2019-04-14T07:04:42.043Z,4.39
2019-04-14T07:05:42.034Z,4.30
2019-04-14T07:06:42.106Z,4.46
2019-04-14T07:07:42.012Z,4.54
2019-04-14T07:08:42.022Z,4.39
2019-04-14T07:09:41.996Z,4.33
2019-04-14T07:10:41.987Z,4.24
2019-04-14T07:11:41.970Z,4.15
2019-04-14T07:12:43.078Z,4.03
2019-04-14T07:13:41.951Z,4.07
2019-04-14T07:14:41.961Z,4.04
2019-04-14T07:15:41.929Z,4.17
2019-04-14T07:16:41.919Z,4.18
2019-04-14T07:17:41.910Z,4.21
2019-04-14T07:18:41.919Z,4.18
2019-04-14T07:19:41.887Z,4.33
2019-04-14T07:20:41.928Z,4.21
2019-04-14T07:21:41.893Z,4.21
2019-04-14T07:22:41.855Z,4.22
2019-04-14T07:23:41.849Z,4.10
2019-04-14T07:24:41.839Z,4.00
2019-04-14T07:25:41.823Z,4.04
2019-04-14T07:26:41.866Z,4.04
2019-04-14T07:27:41.807Z,4.10
2019-04-14T07:28:41.797Z,4.10
2019-04-14T07:29:41.789Z,4.20
2019-04-14T07:30:41.798Z,4.18
2019-04-14T07:31:41.763Z,4.15
2019-04-14T07:32:41.817Z,4.20
2019-04-14T07:33:41.741Z,4.26
2019-04-14T07:34:41.735Z,4.39
2019-04-14T07:35:41.725Z,4.42
2019-04-14T07:36:41.722Z,4.50
2019-04-14T07:37:41.718Z,4.47
2019-04-14T07:38:41.757Z,4.32
2019-04-14T07:39:41.679Z,4.44
2019-04-14T07:40:41.672Z,4.38
2019-04-14T07:41:41.668Z,4.53
2019-04-14T07:42:41.657Z,4.61
2019-04-14T07:43:41.641Z,4.60
2019-04-14T07:44:41.680Z,4.60
2019-04-14T07:45:41.620Z,4.54
2019-04-14T07:46:41.613Z,4.53
2019-04-14T07:47:41.603Z,4.50
2019-04-14T07:48:41.586Z,4.48
2019-04-14T07:49:41.575Z,4.38
2019-04-14T07:50:41.621Z,4.38
2019-04-14T07:51:41.557Z,4.42
2019-04-14T07:52:41.543Z,4.33
2019-04-14T07:53:41.540Z,4.22
2019-04-14T07:54:41.562Z,4.26
2019-04-14T07:55:41.513Z,4.29
2019-04-14T07:56:41.552Z,4.24
2019-04-14T07:57:41.523Z,4.26
2019-04-14T07:58:41.482Z,4.30
2019-04-14T07:59:41.473Z,4.32
2019-04-14T08:00:41.465Z,4.35
2019-04-14T08:01:41.447Z,4.32
2019-04-14T08:02:41.491Z,4.44
2019-04-14T08:03:41.433Z,4.42
2019-04-14T08:04:41.415Z,4.56
2019-04-14T08:05:41.416Z,4.66
2019-04-14T08:06:41.396Z,4.87
2019-04-14T08:07:41.389Z,4.79
2019-04-14T08:08:41.427Z,4.74
2019-04-14T08:09:41.371Z,4.88
2019-04-14T08:10:41.357Z,4.87
2019-04-14T08:11:41.349Z,4.97
2019-04-14T08:12:41.339Z,4.95
2019-04-14T08:13:41.326Z,4.83
2019-04-14T08:14:41.412Z,4.71
2019-04-14T08:15:41.304Z,4.71
2019-04-14T08:16:41.294Z,4.60
2019-04-14T08:17:43.533Z,4.74
2019-04-14T08:18:41.272Z,4.88
2019-04-14T08:19:41.258Z,4.92
2019-04-14T08:20:41.298Z,4.94
2019-04-14T08:21:41.237Z,4.88
2019-04-14T08:22:41.231Z,4.90
2019-04-14T08:23:41.223Z,4.83
2019-04-14T08:24:41.205Z,4.64
2019-04-14T08:25:41.195Z,4.68
2019-04-14T08:26:41.238Z,4.94
2019-04-14T08:27:41.171Z,5.00
2019-04-14T08:28:41.212Z,5.09
2019-04-14T08:29:41.186Z,5.10
2019-04-14T08:30:41.204Z,5.06
2019-04-14T08:31:41.133Z,5.16
2019-04-14T08:32:41.171Z,5.15
2019-04-14T08:33:41.107Z,5.33
2019-04-14T08:34:41.094Z,5.20
2019-04-14T08:35:41.087Z,5.15
2019-04-14T08:36:41.072Z,5.12
2019-04-14T08:37:41.068Z,5.09
2019-04-14T08:38:41.069Z,5.09
2019-04-14T08:39:41.047Z,5.09
2019-04-14T08:40:41.034Z,5.10
2019-04-14T08:41:41.018Z,5.21
2019-04-14T08:42:41.011Z,5.23
2019-04-14T08:43:41.000Z,5.49
2019-04-14T08:44:41.009Z,5.52
2019-04-14T08:45:40.976Z,5.70
2019-04-14T08:46:40.974Z,5.64
2019-04-14T08:47:40.955Z,5.59
2019-04-14T08:48:40.945Z,5.52
2019-04-14T08:49:40.933Z,5.67
2019-04-14T08:50:40.946Z,5.64
2019-04-14T08:51:40.913Z,5.75
2019-04-14T08:52:40.903Z,5.67
2019-04-14T08:53:40.955Z,5.48
2019-04-14T08:54:40.897Z,5.48
2019-04-14T08:55:40.868Z,5.44
2019-04-14T08:56:40.875Z,5.64
2019-04-14T08:57:40.849Z,5.55
2019-04-14T08:58:40.837Z,5.46
2019-04-14T08:59:40.840Z,5.26
2019-04-14T09:00:40.828Z,5.27
2019-04-14T09:01:40.812Z,5.30
2019-04-14T09:02:40.830Z,5.36
2019-04-14T09:03:40.785Z,5.27
2019-04-14T09:04:40.778Z,5.36
2019-04-14T09:05:40.766Z,5.49
2019-04-14T09:06:40.754Z,5.72
2019-04-14T09:07:40.750Z,5.70
2019-04-14T09:08:40.752Z,5.75
2019-04-14T09:09:40.720Z,5.82
2019-04-14T09:10:40.714Z,6.05
2019-04-14T09:11:40.730Z,6.00
2019-04-14T09:12:40.688Z,6.29
2019-04-14T09:13:40.682Z,6.65
2019-04-14T09:14:40.682Z,6.76
2019-04-14T09:15:40.658Z,6.79
2019-04-14T09:16:40.795Z,6.70
2019-04-14T09:17:40.653Z,6.95
2019-04-14T09:18:40.624Z,7.09
2019-04-14T09:19:40.617Z,7.29
2019-04-14T09:20:51.788Z,7.27
2019-04-14T09:21:41.592Z,7.34
2019-04-14T09:22:40.698Z,7.55
2019-04-14T09:23:40.572Z,7.61
2019-04-14T09:24:40.563Z,7.49
2019-04-14T09:25:40.556Z,7.45
2019-04-14T09:26:40.553Z,7.58
2019-04-14T09:27:40.527Z,7.54
2019-04-14T09:28:40.518Z,7.73
2019-04-14T09:29:40.508Z,7.98
2019-04-14T09:30:40.498Z,7.80
2019-04-14T09:31:40.490Z,7.95
2019-04-14T09:32:40.508Z,8.11
2019-04-14T09:33:40.463Z,8.22
2019-04-14T09:34:40.450Z,8.46
2019-04-14T09:35:40.446Z,8.25
2019-04-14T09:36:40.437Z,8.19
2019-04-14T09:37:40.425Z,7.75
2019-04-14T09:38:40.425Z,7.22
2019-04-14T09:39:40.403Z,7.11
2019-04-14T09:40:40.392Z,7.05
2019-04-14T09:41:40.383Z,6.86
2019-04-14T09:42:40.418Z,6.73
2019-04-14T09:43:40.363Z,6.79
2019-04-14T09:44:40.613Z,6.67
2019-04-14T09:45:40.344Z,6.57
2019-04-14T09:46:40.328Z,6.31
2019-04-14T09:47:40.336Z,6.60
2019-04-14T09:48:42.834Z,6.67
2019-04-14T09:49:40.309Z,6.76
2019-04-14T09:50:40.311Z,6.90
2019-04-14T09:51:40.287Z,7.00
2019-04-14T09:52:40.273Z,6.79
2019-04-14T09:53:40.263Z,6.61
2019-04-14T09:54:40.253Z,6.62
2019-04-14T09:55:40.239Z,6.76
2019-04-14T09:56:40.249Z,6.86
2019-04-14T09:57:40.230Z,7.15
2019-04-14T09:58:40.225Z,6.95
2019-04-14T09:59:40.200Z,7.04
2019-04-14T10:00:40.210Z,6.85
2019-04-14T10:01:40.188Z,6.70
2019-04-14T10:02:40.195Z,6.67
2019-04-14T10:03:40.248Z,6.52
2019-04-14T10:04:40.145Z,6.54
2019-04-14T10:05:40.130Z,6.62
2019-04-14T10:06:40.979Z,6.58
2019-04-14T10:07:40.110Z,6.55
2019-04-14T10:08:40.113Z,6.76
2019-04-14T10:09:40.084Z,6.94
2019-04-14T10:10:40.081Z,6.88
2019-04-14T10:11:48.404Z,6.94
2019-04-14T10:12:41.058Z,7.09
2019-04-14T10:13:40.040Z,7.23
2019-04-14T10:14:40.100Z,7.22
2019-04-14T10:15:40.029Z,7.58
2019-04-14T10:16:40.011Z,7.67
2019-04-14T10:17:40.004Z,7.56
2019-04-14T10:18:39.991Z,7.45
2019-04-14T10:19:39.979Z,7.12
2019-04-14T10:20:40.025Z,6.75
2019-04-14T10:21:39.964Z,6.72
2019-04-14T10:22:39.945Z,6.46
2019-04-14T10:23:39.942Z,6.37
2019-04-14T10:24:39.927Z,6.10
2019-04-14T10:25:39.926Z,5.99
2019-04-14T10:26:39.958Z,6.02
2019-04-14T10:27:39.897Z,6.15
2019-04-14T10:28:39.887Z,5.87
2019-04-14T10:29:39.873Z,5.75
2019-04-14T10:30:39.859Z,5.44
2019-04-14T10:31:39.852Z,5.44
2019-04-14T10:32:39.894Z,5.42
2019-04-14T10:33:39.827Z,5.55
2019-04-14T10:34:39.820Z,5.64
2019-04-14T10:35:39.804Z,5.55
2019-04-14T10:36:39.801Z,5.64
2019-04-14T10:37:39.791Z,5.67
2019-04-14T10:38:39.792Z,5.69
2019-04-14T10:39:39.763Z,5.73
2019-04-14T10:40:39.768Z,5.67
2019-04-14T10:41:39.751Z,5.70
2019-04-14T10:42:39.735Z,5.70
2019-04-14T10:43:39.728Z,5.59
2019-04-14T10:44:39.773Z,5.60
2019-04-14T10:45:39.721Z,5.59
2019-04-14T10:46:39.696Z,5.73
2019-04-14T10:47:39.684Z,5.80
2019-04-14T10:48:39.670Z,5.64
2019-04-14T10:49:39.674Z,5.41
2019-04-14T10:50:39.712Z,5.37
2019-04-14T10:51:39.840Z,5.45
2019-04-14T10:52:39.767Z,5.49
2019-04-14T10:53:39.619Z,5.41
2019-04-14T10:54:39.603Z,5.45
2019-04-14T10:55:39.594Z,5.49
2019-04-14T10:56:39.632Z,5.48
2019-04-14T10:57:39.572Z,5.23
2019-04-14T10:58:39.565Z,5.28
2019-04-14T10:59:39.549Z,5.21
2019-04-14T11:00:39.539Z,5.20
2019-04-14T11:01:39.530Z,5.18
2019-04-14T11:02:39.586Z,5.18
2019-04-14T11:03:39.510Z,5.31
2019-04-14T11:04:39.494Z,5.45
2019-04-14T11:05:39.485Z,5.59
2019-04-14T11:06:39.478Z,5.44
2019-04-14T11:07:39.462Z,5.34
2019-04-14T11:08:39.514Z,5.33
2019-04-14T11:09:39.440Z,5.31
2019-04-14T11:10:39.431Z,5.27
2019-04-14T11:11:39.421Z,5.30
2019-04-14T11:12:39.408Z,5.33
2019-04-14T11:13:39.532Z,5.42
2019-04-14T11:14:39.440Z,5.42
2019-04-14T11:15:39.376Z,5.45
2019-04-14T11:16:39.363Z,5.48
2019-04-14T11:17:39.355Z,5.52
2019-04-14T11:18:39.345Z,5.45
2019-04-14T11:19:39.357Z,5.45
2019-04-14T11:20:39.367Z,5.46
2019-04-14T11:21:42.598Z,5.24
2019-04-14T11:22:39.303Z,5.30
2019-04-14T11:23:39.287Z,5.28
2019-04-14T11:24:39.275Z,5.30
2019-04-14T11:25:39.270Z,5.46
2019-04-14T11:26:39.325Z,5.41
2019-04-14T11:27:39.245Z,5.34
2019-04-14T11:28:39.236Z,5.34
2019-04-14T11:29:39.233Z,5.48
2019-04-14T11:30:39.214Z,5.44
2019-04-14T11:31:39.203Z,5.60
2019-04-14T11:32:39.542Z,5.34
2019-04-14T11:33:39.402Z,5.30
2019-04-14T11:34:39.169Z,5.27
2019-04-14T11:35:39.173Z,5.33
2019-04-14T11:36:39.147Z,5.34
2019-04-14T11:37:39.146Z,5.36
2019-04-14T11:38:39.376Z,5.33
2019-04-14T11:39:39.242Z,5.48
2019-04-14T11:40:39.102Z,5.39
2019-04-14T11:41:39.100Z,5.44
2019-04-14T11:42:51.576Z,5.34
2019-04-14T11:43:40.121Z,5.44
2019-04-14T11:44:39.113Z,5.45
2019-04-14T11:45:39.065Z,5.55
2019-04-14T11:46:39.045Z,5.46
2019-04-14T11:47:39.939Z,5.52
2019-04-14T11:48:39.016Z,5.44
2019-04-14T11:49:39.058Z,5.46
2019-04-14T11:50:38.993Z,5.46
2019-04-14T11:51:38.985Z,5.48
2019-04-14T11:52:38.984Z,5.48
2019-04-14T11:53:38.964Z,5.62
2019-04-14T11:54:38.949Z,5.78
2019-04-14T11:55:38.990Z,5.87
2019-04-14T11:56:38.930Z,5.91
2019-04-14T11:57:38.940Z,5.80
2019-04-14T11:58:38.912Z,5.73
2019-04-14T11:59:39.079Z,5.62
2019-04-14T12:00:38.906Z,5.66
2019-04-14T12:01:38.947Z,5.75
2019-04-14T12:02:38.937Z,5.75
2019-04-14T12:03:38.853Z,5.75
2019-04-14T12:04:38.840Z,5.70
2019-04-14T12:05:38.831Z,5.70
2019-04-14T12:06:38.821Z,5.70
2019-04-14T12:07:38.859Z,5.57
2019-04-14T12:08:38.802Z,5.54
2019-04-14T12:09:38.879Z,5.45
2019-04-14T12:10:38.780Z,5.62
2019-04-14T12:11:38.767Z,5.62
2019-04-14T12:12:38.756Z,5.73
2019-04-14T12:13:38.800Z,5.78
2019-04-14T12:14:38.737Z,6.00
2019-04-14T12:15:38.738Z,6.17
2019-04-14T12:16:38.715Z,6.28
2019-04-14T12:17:38.706Z,6.26
2019-04-14T12:18:38.692Z,6.33
2019-04-14T12:19:38.734Z,6.43
2019-04-14T12:20:38.943Z,6.37
2019-04-14T12:21:38.812Z,6.46
2019-04-14T12:22:38.777Z,6.29
2019-04-14T12:23:38.660Z,6.58
2019-04-14T12:24:38.628Z,6.43
2019-04-14T12:25:38.666Z,6.46
2019-04-14T12:26:38.605Z,6.47
2019-04-14T12:27:39.660Z,6.43
2019-04-14T12:28:38.708Z,6.44
2019-04-14T12:29:39.031Z,6.61
2019-04-14T12:30:39.799Z,6.68
2019-04-14T12:31:39.621Z,6.61
2019-04-14T12:32:38.543Z,6.60
2019-04-14T12:33:38.560Z,6.40
2019-04-14T12:34:38.524Z,6.43
2019-04-14T12:35:38.511Z,6.29
2019-04-14T12:36:38.501Z,6.05
2019-04-14T12:37:38.536Z,5.88
2019-04-14T12:38:38.543Z,5.87
2019-04-14T12:39:38.472Z,6.10
2019-04-14T12:40:38.842Z,6.26
2019-04-14T12:41:38.453Z,6.15
2019-04-14T12:42:38.451Z,6.29
2019-04-14T12:43:38.514Z,6.31
2019-04-14T12:44:38.414Z,6.44
2019-04-14T12:45:38.405Z,6.31
2019-04-14T12:46:38.399Z,6.15
2019-04-14T12:47:40.320Z,6.07
2019-04-14T12:48:38.375Z,6.02
2019-04-14T12:49:38.482Z,5.78
2019-04-14T12:50:38.356Z,5.66
2019-04-14T12:51:38.341Z,5.63
2019-04-14T12:52:38.330Z,5.64
2019-04-14T12:53:38.324Z,5.64
2019-04-14T12:54:38.308Z,5.66
2019-04-14T12:55:38.393Z,5.57
2019-04-14T12:56:38.289Z,5.55
2019-04-14T12:57:38.279Z,5.60
2019-04-14T12:58:38.267Z,5.63
2019-04-14T12:59:38.257Z,5.55
2019-04-14T13:00:38.248Z,5.72
2019-04-14T13:01:38.260Z,5.78
2019-04-14T13:02:38.225Z,5.70
2019-04-14T13:03:38.215Z,5.73
2019-04-14T13:04:38.205Z,5.69
2019-04-14T13:05:38.192Z,5.57
2019-04-14T13:06:38.186Z,5.48
2019-04-14T13:07:38.288Z,5.57
2019-04-14T13:08:38.164Z,5.52
2019-04-14T13:09:38.150Z,5.46
2019-04-14T13:10:38.137Z,5.57
2019-04-14T13:11:38.128Z,5.67
2019-04-14T13:12:38.122Z,5.73
2019-04-14T13:13:38.156Z,5.98
2019-04-14T13:14:38.096Z,5.84
2019-04-14T13:15:38.083Z,6.05
2019-04-14T13:16:38.073Z,6.09
2019-04-14T13:17:38.067Z,6.07
2019-04-14T13:18:38.054Z,6.17
2019-04-14T13:19:38.092Z,6.13
2019-04-14T13:20:38.035Z,6.17
2019-04-14T13:21:40.422Z,6.28
2019-04-14T13:22:38.010Z,6.33
2019-04-14T13:23:38.006Z,6.24
2019-04-14T13:24:37.990Z,6.05
2019-04-14T13:25:38.364Z,6.02
2019-04-14T13:26:37.964Z,6.07
2019-04-14T13:27:37.961Z,6.02
2019-04-14T13:28:37.945Z,5.99
2019-04-14T13:29:37.940Z,5.80
2019-04-14T13:30:37.933Z,5.98
2019-04-14T13:31:37.964Z,5.84
2019-04-14T13:32:37.908Z,5.72
2019-04-14T13:33:37.894Z,5.57
2019-04-14T13:34:37.881Z,5.64
2019-04-14T13:35:37.871Z,5.60
2019-04-14T13:36:37.862Z,5.62
2019-04-14T13:37:37.906Z,5.54
2019-04-14T13:38:37.851Z,5.49
2019-04-14T13:39:37.836Z,5.41
2019-04-14T13:40:37.817Z,5.51
2019-04-14T13:41:37.811Z,5.48
2019-04-14T13:42:37.814Z,5.42